Terminal Aerodrome Forecast
Issued by NWS Greer, SC

Home | Current Version | Previous Version | Text Only | Print | Product List | Glossary On
Versions: 1 2 3 4 5 6 7 8 9 10 11 12 13 14 15 16 17 18 19 20 21 22 23 24 25 26 27 28 29 30 31 32 33 34 35 36 37 38 39 40 41 42 43 44
000
FTUS42 KGSP 202335
TAFAVL
TAF
KAVL 202335Z 2100/2124 20010KT P6SM FEW090 SCT250
     FM210100 34014G25KT P6SM SCT050
     FM210500 35019G26KT P6SM SCT050
     FM211200 34013KT P6SM SCT250
     FM211700 34016G25KT P6SM SCT050 SCT250=

USA.gov is the U.S. government's official web portal to all federal, state and local government web resources and services.